Time;durP1;ratioP1;P1;durP2;ratioP2;P2;SDS_P1;SDS_P2;PMS_P1;PMS_P2;Temp;Humidity;BMP_temperature;BMP_pressure;BME280_temperature;BME280_humidity;BME280_pressure;Samples;Min_cycle;Max_cycle;Signal;HPM_P1;HPM_P2
2022/10/04 00:00:27;;;;;;;49.37;42.70;;;18.20;83.90;;;;;;5052979;28;20021;-53
2022/10/04 00:03:10;;;;;;;53.85;42.40;;;18.30;84.10;;;;;;5042404;28;20045;-55
2022/10/04 00:05:37;;;;;;;50.72;40.25;;;18.30;84.10;;;;;;5036044;28;20026;-54
2022/10/04 00:08:18;;;;;;;57.58;41.90;;;18.20;84.00;;;;;;5040900;28;20100;-52
2022/10/04 00:10:44;;;;;;;46.88;40.47;;;18.20;84.20;;;;;;5052851;28;20514;-56
2022/10/04 00:13:22;;;;;;;44.72;39.28;;;18.10;84.10;;;;;;5039494;28;20033;-56
2022/10/04 00:15:49;;;;;;;50.40;42.28;;;18.10;84.30;;;;;;5033132;28;20029;-56
2022/10/04 00:18:59;;;;;;;52.70;42.33;;;18.10;84.40;;;;;;5033167;28;20403;-54
2022/10/04 00:22:09;;;;;;;48.83;39.63;;;18.10;84.70;;;;;;4958090;28;20023;-52
2022/10/04 00:24:36;;;;;;;44.45;38.63;;;18.10;84.70;;;;;;5027737;28;20084;-57
2022/10/04 00:27:23;;;;;;;44.42;37.67;;;18.10;84.60;;;;;;5032513;28;20365;-53
2022/10/04 00:30:20;;;;;;;47.28;39.17;;;18.20;85.20;;;;;;5032799;28;20021;-53
2022/10/04 00:33:00;;;;;;;50.58;38.08;;;18.10;84.80;;;;;;5035091;28;20398;-53
2022/10/04 00:35:26;;;;;;;45.00;35.83;;;18.10;84.70;;;;;;5033283;28;20372;-53
2022/10/04 00:38:15;;;;;;;41.65;34.35;;;18.10;84.50;;;;;;5044522;28;20048;-56
2022/10/04 00:41:13;;;;;;;43.38;38.65;;;18.10;84.40;;;;;;5044265;28;20025;-56
2022/10/04 00:43:46;;;;;;;44.58;34.78;;;18.20;84.50;;;;;;5001609;28;20164;-55
2022/10/04 00:46:15;;;;;;;39.33;33.88;;;18.10;84.30;;;;;;5031286;28;20029;-53
2022/10/04 00:48:58;;;;;;;43.95;34.70;;;18.10;84.30;;;;;;5036722;28;20025;-53
2022/10/04 00:51:49;;;;;;;43.97;36.53;;;18.10;84.50;;;;;;5032554;28;20025;-55
2022/10/04 00:54:55;;;;;;;41.10;35.42;;;18.10;84.50;;;;;;5032562;28;20030;-52
2022/10/04 00:57:39;;;;;;;40.50;34.33;;;18.10;84.40;;;;;;5019221;28;20042;-52
2022/10/04 01:00:11;;;;;;;45.42;37.03;;;18.00;84.30;;;;;;5035734;28;20372;-57
2022/10/04 01:02:45;;;;;;;46.70;37.97;;;18.00;84.40;;;;;;5044189;28;20438;-55
2022/10/04 01:05:16;;;;;;;47.35;37.20;;;18.00;84.60;;;;;;5032180;28;20033;-54
2022/10/04 01:07:48;;;;;;;45.63;36.58;;;18.00;84.70;;;;;;5038897;28;20031;-52
2022/10/04 01:10:30;;;;;;;44.35;36.58;;;18.00;84.70;;;;;;5051965;28;20036;-53
2022/10/04 01:13:29;;;;;;;44.85;36.45;;;18.00;84.70;;;;;;5042329;28;20488;-54
2022/10/04 01:16:05;;;;;;;45.35;35.17;;;18.00;84.90;;;;;;5032078;28;20037;-54
2022/10/04 01:18:33;;;;;;;42.15;36.60;;;18.00;84.80;;;;;;5031818;28;20519;-54
2022/10/04 01:21:17;;;;;;;46.78;34.50;;;17.90;84.90;;;;;;5032131;28;20543;-53
2022/10/04 01:23:45;;;;;;;41.72;35.97;;;18.00;84.90;;;;;;5046653;28;20402;-54
2022/10/04 01:26:28;;;;;;;44.20;37.15;;;17.90;85.00;;;;;;5051460;28;20368;-56
2022/10/04 01:28:59;;;;;;;45.15;36.33;;;17.90;85.10;;;;;;5050083;28;20472;-53
2022/10/04 01:31:26;;;;;;;41.40;36.83;;;17.90;85.00;;;;;;5031872;28;20025;-54
2022/10/04 01:33:53;;;;;;;42.53;35.88;;;17.90;85.10;;;;;;5042816;28;20111;-54
2022/10/04 01:36:19;;;;;;;42.75;35.13;;;17.90;85.00;;;;;;5042889;28;20418;-53
2022/10/04 01:38:45;;;;;;;44.95;35.10;;;17.90;85.00;;;;;;5038733;28;20041;-55
2022/10/04 01:41:17;;;;;;;38.72;33.20;;;17.80;85.10;;;;;;5046218;28;20036;-53
2022/10/04 01:43:48;;;;;;;42.50;35.33;;;17.80;85.30;;;;;;5035741;28;20033;-55
2022/10/04 01:46:24;;;;;;;40.42;33.70;;;17.80;85.30;;;;;;5031670;28;20025;-57
2022/10/04 01:48:53;;;;;;;45.75;37.25;;;17.80;85.50;;;;;;5035105;28;20025;-56
2022/10/04 01:51:23;;;;;;;44.40;36.22;;;17.80;85.40;;;;;;5031655;28;20027;-55
2022/10/04 01:53:57;;;;;;;44.30;36.47;;;17.80;85.50;;;;;;5050803;28;20029;-53
2022/10/04 01:56:26;;;;;;;43.65;33.85;;;17.70;85.60;;;;;;5050188;28;20488;-55
2022/10/04 01:59:01;;;;;;;39.75;34.85;;;17.70;85.60;;;;;;5050957;28;20032;-54
2022/10/04 02:01:38;;;;;;;41.72;34.17;;;17.70;85.70;;;;;;5051249;28;20029;-54
2022/10/04 02:04:07;;;;;;;41.13;33.22;;;17.70;85.90;;;;;;5035352;28;20039;-55
2022/10/04 02:06:42;;;;;;;41.40;34.17;;;17.70;85.80;;;;;;5044053;28;20017;-54
2022/10/04 02:09:17;;;;;;;39.78;33.35;;;17.70;85.80;;;;;;5033414;28;20752;-53
2022/10/04 02:11:43;;;;;;;43.80;31.60;;;17.70;85.70;;;;;;5057144;28;20103;-52
2022/10/04 02:14:16;;;;;;;38.63;31.77;;;17.70;85.50;;;;;;5070119;28;20082;-53
2022/10/04 02:16:45;;;;;;;41.45;33.90;;;17.70;85.40;;;;;;5056078;28;20083;-54
2022/10/04 02:19:15;;;;;;;38.13;31.23;;;17.70;85.50;;;;;;5051135;28;20025;-55
2022/10/04 02:21:42;;;;;;;36.33;32.35;;;17.70;85.40;;;;;;5036950;28;20026;-52
2022/10/04 02:24:09;;;;;;;34.55;30.40;;;17.70;85.30;;;;;;5050879;28;20487;-57
2022/10/04 02:26:35;;;;;;;40.42;33.67;;;17.70;85.10;;;;;;5049716;28;20108;-55
2022/10/04 02:29:00;;;;;;;49.15;33.47;;;17.70;85.20;;;;;;5049455;28;20477;-55
2022/10/04 02:34:12;;;;;;;36.20;32.17;;;17.60;85.60;;;;;;5036231;28;20048;-53
2022/10/04 02:36:39;;;;;;;40.50;31.63;;;17.60;85.70;;;;;;5031065;28;20053;-54
2022/10/04 02:39:14;;;;;;;41.70;33.70;;;17.50;85.90;;;;;;5080268;23;20720;-58
2022/10/04 02:41:48;;;;;;;38.88;32.17;;;17.50;85.90;;;;;;5050029;28;20496;-57
2022/10/04 02:44:23;;;;;;;37.83;32.30;;;17.50;85.80;;;;;;5050836;28;20032;-58
2022/10/04 02:46:51;;;;;;;38.35;31.67;;;17.60;85.60;;;;;;5050381;28;20024;-58
2022/10/04 02:49:44;;;;;;;36.70;32.55;;;17.60;85.40;;;;;;5060269;28;20031;-58
2022/10/04 02:52:26;;;;;;;39.53;30.30;;;17.60;85.30;;;;;;5035027;28;20045;-58
2022/10/04 02:55:19;;;;;;;41.28;32.55;;;17.60;85.40;;;;;;5041913;28;20040;-58
2022/10/04 02:57:45;;;;;;;37.33;32.30;;;17.50;85.40;;;;;;5046029;28;20037;-58
2022/10/04 03:00:30;;;;;;;41.95;32.42;;;17.50;85.60;;;;;;5052306;28;20032;-58
2022/10/04 03:03:11;;;;;;;36.75;32.72;;;17.50;85.70;;;;;;5044354;28;20403;-58
2022/10/04 03:05:38;;;;;;;41.47;31.48;;;17.50;85.80;;;;;;5054124;28;20033;-58
2022/10/04 03:08:05;;;;;;;35.83;31.75;;;17.40;85.80;;;;;;5041856;28;20049;-58
2022/10/04 03:10:31;;;;;;;38.22;30.77;;;17.40;85.90;;;;;;5045405;28;20390;-58
2022/10/04 03:12:57;;;;;;;33.65;29.55;;;17.40;85.90;;;;;;5050055;28;20025;-58
2022/10/04 03:15:23;;;;;;;33.75;29.00;;;17.40;85.80;;;;;;5059913;28;20029;-58
2022/10/04 03:17:49;;;;;;;35.15;30.38;;;17.40;85.50;;;;;;5072899;28;20025;-57
2022/10/04 03:20:20;;;;;;;40.53;31.77;;;17.40;85.40;;;;;;5061476;28;20051;-57
2022/10/04 03:22:49;;;;;;;45.97;30.52;;;17.40;85.40;;;;;;5053505;28;20027;-58
2022/10/04 03:25:23;;;;;;;36.65;30.08;;;17.50;85.50;;;;;;5054390;28;20312;-58
2022/10/04 03:27:50;;;;;;;34.55;29.27;;;17.50;85.40;;;;;;5042672;28;20060;-58
2022/10/04 03:30:19;;;;;;;37.35;30.15;;;17.40;85.30;;;;;;5033907;28;20029;-58
2022/10/04 03:32:46;;;;;;;37.63;29.77;;;17.50;85.40;;;;;;5053899;28;20033;-56
2022/10/04 03:35:36;;;;;;;36.03;30.58;;;17.40;85.30;;;;;;5050302;28;20033;-58
2022/10/04 03:38:07;;;;;;;33.83;28.85;;;17.40;85.50;;;;;;5047736;28;20236;-57
2022/10/04 03:40:36;;;;;;;35.75;30.27;;;17.40;85.40;;;;;;5042196;28;20025;-58
2022/10/04 03:43:04;;;;;;;36.63;28.67;;;17.40;85.50;;;;;;5040637;28;20029;-57
2022/10/04 03:45:31;;;;;;;32.42;27.17;;;17.40;85.40;;;;;;5070360;28;20399;-58
2022/10/04 03:48:06;;;;;;;42.72;27.75;;;17.40;85.40;;;;;;5067901;28;20028;-58
2022/10/04 03:50:38;;;;;;;37.50;27.08;;;17.40;85.30;;;;;;5053679;28;20546;-54
2022/10/04 03:53:22;;;;;;;39.08;27.13;;;17.40;85.20;;;;;;5051667;28;20025;-59
2022/10/04 03:55:47;;;;;;;36.38;26.73;;;17.40;85.20;;;;;;5053426;28;20029;-59
2022/10/04 03:58:16;;;;;;;28.77;25.67;;;17.30;85.30;;;;;;5053141;28;20052;-59
2022/10/04 04:01:03;;;;;;;29.08;24.20;;;17.30;85.20;;;;;;5053041;28;20036;-59
2022/10/04 04:03:34;;;;;;;31.85;25.73;;;17.40;85.10;;;;;;5052795;28;20024;-58
2022/10/04 04:06:05;;;;;;;31.63;25.30;;;17.40;84.90;;;;;;5053448;28;20021;-58
2022/10/04 04:08:40;;;;;;;31.13;25.33;;;17.40;84.90;;;;;;5052994;28;20544;-58
2022/10/04 04:11:10;;;;;;;33.50;27.42;;;17.40;84.90;;;;;;5053366;28;20099;-59
2022/10/04 04:13:57;;;;;;;35.63;28.52;;;17.30;84.70;;;;;;5053240;28;20052;-59
2022/10/04 04:16:27;;;;;;;30.15;26.83;;;17.30;85.00;;;;;;5053210;28;20028;-59
2022/10/04 04:18:58;;;;;;;34.65;26.77;;;17.20;85.10;;;;;;5052880;28;20376;-59
2022/10/04 04:21:25;;;;;;;37.17;27.27;;;17.20;85.20;;;;;;5051875;28;20402;-58
2022/10/04 04:23:57;;;;;;;;;;;17.20;85.20;;;;;;5053424;28;20112;-57
2022/10/04 04:26:28;;;;;;;33.22;27.10;;;17.20;85.20;;;;;;5052975;28;19905;-59
2022/10/04 04:29:21;;;;;;;29.80;26.65;;;17.10;85.20;;;;;;5052719;28;20025;-59
2022/10/04 04:32:04;;;;;;;30.42;26.42;;;17.10;85.40;;;;;;5052980;28;20024;-58
2022/10/04 04:34:33;;;;;;;36.40;27.45;;;17.10;85.40;;;;;;5053158;28;20454;-58
2022/10/04 04:37:01;;;;;;;33.00;26.05;;;17.10;85.30;;;;;;5052840;28;20025;-59
2022/10/04 04:39:42;;;;;;;30.63;26.63;;;17.00;85.40;;;;;;5052435;28;20035;-58
2022/10/04 04:42:28;;;;;;;34.30;26.83;;;17.00;86.10;;;;;;5052682;28;20078;-59
2022/10/04 04:45:13;;;;;;;32.75;29.23;;;17.10;85.60;;;;;;5052641;28;20032;-58
2022/10/04 04:47:43;;;;;;;35.72;28.42;;;17.10;85.80;;;;;;5052583;28;20463;-58
2022/10/04 04:50:32;;;;;;;33.90;28.33;;;17.20;85.90;;;;;;5052353;28;20479;-59
2022/10/04 04:53:04;;;;;;;34.92;28.63;;;17.20;85.80;;;;;;5052471;28;20098;-59
2022/10/04 04:55:54;;;;;;;36.20;30.13;;;17.20;85.80;;;;;;5052431;28;20029;-58
2022/10/04 04:58:26;;;;;;;39.03;30.98;;;17.10;85.80;;;;;;5050048;28;20036;-57
2022/10/04 05:01:20;;;;;;;38.95;32.10;;;17.10;85.70;;;;;;5052424;28;20060;-59
2022/10/04 05:04:03;;;;;;;33.80;29.58;;;17.10;85.90;;;;;;5052197;28;20364;-58
2022/10/04 05:06:30;;;;;;;33.80;29.23;;;17.10;86.00;;;;;;5052130;28;20029;-56
2022/10/04 05:08:56;;;;;;;40.15;32.90;;;17.00;86.00;;;;;;5051861;28;20025;-57
2022/10/04 05:11:26;;;;;;;40.20;31.02;;;17.00;85.90;;;;;;5034383;28;20372;-57
2022/10/04 05:14:06;;;;;;;37.72;30.63;;;17.00;86.00;;;;;;5032163;28;20063;-56
2022/10/04 05:16:42;;;;;;;39.17;32.67;;;17.00;86.00;;;;;;5040515;28;20075;-57
2022/10/04 05:19:30;;;;;;;41.03;32.60;;;17.00;85.90;;;;;;5051881;28;20510;-61
2022/10/04 05:22:10;;;;;;;39.33;32.22;;;17.00;86.00;;;;;;5052087;28;20049;-61
2022/10/04 05:24:43;;;;;;;38.97;32.03;;;16.90;86.10;;;;;;5052020;28;20383;-60
2022/10/04 05:27:16;;;;;;;39.35;32.45;;;16.90;86.20;;;;;;5052011;28;20056;-48
2022/10/04 05:29:53;;;;;;;39.85;32.70;;;16.90;86.30;;;;;;5051531;28;20369;-50
2022/10/04 05:32:34;;;;;;;;;;;16.80;86.50;;;;;;5052385;28;20025;-50
2022/10/04 05:35:00;;;;;;;41.53;33.00;;;16.80;86.60;;;;;;5051842;28;19912;-51
2022/10/04 05:37:33;;;;;;;42.08;35.22;;;16.80;86.50;;;;;;5051624;28;20414;-50
2022/10/04 05:40:04;;;;;;;40.70;36.35;;;16.90;86.50;;;;;;5052108;28;20040;-50
2022/10/04 05:42:44;;;;;;;45.15;34.33;;;16.90;86.70;;;;;;5051640;28;20391;-50
2022/10/04 05:45:28;;;;;;;47.85;37.95;;;16.90;87.10;;;;;;5051831;28;20013;-50
2022/10/04 05:47:56;;;;;;;48.25;36.45;;;16.90;87.40;;;;;;5051715;28;20680;-51
2022/10/04 05:50:35;;;;;;;48.50;37.47;;;16.90;87.50;;;;;;5051606;28;20025;-50
2022/10/04 05:53:34;;;;;;;46.05;37.80;;;17.00;87.70;;;;;;5051691;28;20124;-47
2022/10/04 05:56:21;;;;;;;46.75;37.42;;;17.00;87.60;;;;;;5050314;28;20029;-49
2022/10/04 05:59:05;;;;;;;50.15;37.88;;;17.00;87.60;;;;;;5051282;28;20029;-50
2022/10/04 06:01:36;;;;;;;44.83;37.83;;;17.00;88.00;;;;;;5051809;28;20033;-50
2022/10/04 06:04:37;;;;;;;47.15;37.88;;;17.10;87.80;;;;;;5051405;28;20458;-50
2022/10/04 06:07:15;;;;;;;44.53;37.10;;;17.10;87.60;;;;;;4970470;28;20070;-50
2022/10/04 06:10:02;;;;;;;50.08;38.90;;;17.20;87.50;;;;;;5041137;28;20384;-51
2022/10/04 06:12:46;;;;;;;46.35;39.95;;;17.20;87.50;;;;;;5051547;28;20021;-50
2022/10/04 06:15:45;;;;;;;52.72;40.55;;;17.10;87.40;;;;;;5051422;28;20032;-49
2022/10/04 06:18:20;;;;;;;44.72;38.80;;;17.10;88.00;;;;;;5051321;28;20061;-48
2022/10/04 06:20:53;;;;;;;49.75;38.72;;;17.00;88.20;;;;;;5051457;28;20029;-52
2022/10/04 06:23:21;;;;;;;45.53;39.50;;;17.00;88.30;;;;;;5051226;28;20500;-50
2022/10/04 06:25:52;;;;;;;48.35;38.97;;;17.00;88.30;;;;;;5053175;28;20021;-50
2022/10/04 06:28:41;;;;;;;47.60;38.30;;;17.10;88.40;;;;;;5055073;28;20021;-49
2022/10/04 06:31:13;;;;;;;49.47;38.38;;;17.10;88.50;;;;;;5054793;28;20040;-49
2022/10/04 06:33:50;;;;;;;45.35;38.03;;;17.30;88.40;;;;;;5055236;28;20177;-49
2022/10/04 06:36:51;;;;;;;45.50;37.22;;;17.30;88.40;;;;;;5055093;28;20029;-52
2022/10/04 06:39:45;;;;;;;44.17;37.35;;;17.40;88.30;;;;;;5040643;28;20426;-50
2022/10/04 06:42:44;;;;;;;46.13;36.17;;;17.50;88.40;;;;;;5054952;28;20025;-50
2022/10/04 06:45:40;;;;;;;48.85;36.83;;;17.60;88.20;;;;;;5053752;28;20029;-51
2022/10/04 06:48:32;;;;;;;48.17;36.42;;;17.60;87.90;;;;;;5054715;28;20025;-47
2022/10/04 06:51:17;;;;;;;44.17;37.13;;;17.70;88.20;;;;;;5017398;28;20029;-50
2022/10/04 06:54:26;;;;;;;43.83;35.63;;;17.80;88.10;;;;;;5054826;28;20398;-50
2022/10/04 06:57:34;;;;;;;46.03;37.05;;;17.90;88.20;;;;;;5028495;28;20065;-48
2022/10/04 07:00:22;;;;;;;38.22;33.92;;;17.90;88.50;;;;;;5032331;28;20479;-49
2022/10/04 07:02:54;;;;;;;42.42;34.97;;;18.10;88.20;;;;;;5054684;28;20024;-58
2022/10/04 07:05:41;;;;;;;43.08;34.08;;;18.10;87.80;;;;;;5054539;28;20108;-57
2022/10/04 07:08:32;;;;;;;45.78;34.90;;;18.20;87.60;;;;;;5054556;28;20021;-58
2022/10/04 07:11:20;;;;;;;41.20;35.90;;;18.20;87.30;;;;;;5054668;28;20419;-54
2022/10/04 07:14:19;;;;;;;40.83;35.45;;;18.30;87.60;;;;;;5054466;28;20545;-56
2022/10/04 07:16:46;;;;;;;40.75;34.80;;;18.30;87.90;;;;;;5053132;28;20124;-57
2022/10/04 07:19:18;;;;;;;40.85;34.40;;;18.20;88.00;;;;;;5054098;28;20391;-58
2022/10/04 07:21:52;;;;;;;42.17;35.40;;;18.20;88.60;;;;;;5054348;28;20039;-54
2022/10/04 07:24:49;;;;;;;44.55;37.35;;;18.30;88.30;;;;;;5052947;28;20037;-57
2022/10/04 07:27:31;;;;;;;48.20;35.72;;;18.30;88.50;;;;;;5021334;28;20591;-56
2022/10/04 07:30:00;;;;;;;43.30;35.63;;;18.40;88.90;;;;;;5054015;28;20450;-57
2022/10/04 07:32:35;;;;;;;42.22;35.40;;;18.60;88.50;;;;;;5054149;28;20518;-55
2022/10/04 07:35:12;;;;;;;39.28;34.10;;;18.80;87.90;;;;;;5054105;28;20031;-58
2022/10/04 07:38:16;;;;;;;38.20;32.28;;;19.00;87.00;;;;;;5052380;28;20029;-58
2022/10/04 07:41:09;;;;;;;37.13;32.30;;;19.20;86.10;;;;;;5030167;28;20476;-58
2022/10/04 07:43:54;;;;;;;38.60;33.08;;;19.40;85.40;;;;;;5052824;28;20029;-59
2022/10/04 07:46:41;;;;;;;38.88;32.20;;;19.50;85.20;;;;;;5053942;28;20013;-58
2022/10/04 07:49:15;;;;;;;42.33;34.25;;;19.60;84.60;;;;;;5053534;28;20475;-58
2022/10/04 07:52:14;;;;;;;37.63;33.28;;;19.60;84.20;;;;;;5053850;28;20028;-58
2022/10/04 07:54:51;;;;;;;42.10;32.28;;;19.60;84.10;;;;;;5053883;28;20029;-58
2022/10/04 07:57:43;;;;;;;43.42;35.03;;;19.50;84.70;;;;;;5053691;28;20037;-56
2022/10/04 08:00:16;;;;;;;41.67;35.85;;;19.60;84.40;;;;;;5053465;28;20105;-57
2022/10/04 08:03:12;;;;;;;40.65;36.17;;;19.60;84.30;;;;;;5053550;28;20067;-58
2022/10/04 08:05:42;;;;;;;43.10;33.70;;;19.70;84.20;;;;;;5051633;28;20032;-57
2022/10/04 08:08:16;;;;;;;39.92;34.72;;;19.70;84.20;;;;;;5051383;28;20036;-56
2022/10/04 08:10:51;;;;;;;45.13;35.03;;;19.80;84.30;;;;;;5052772;28;20025;-55
2022/10/04 08:13:51;;;;;;;39.53;33.08;;;19.90;83.80;;;;;;5052007;28;20518;-55
2022/10/04 08:16:41;;;;;;;41.50;33.22;;;20.10;83.10;;;;;;5053567;28;20040;-57
2022/10/04 08:19:37;;;;;;;42.13;34.55;;;20.20;82.70;;;;;;5052934;28;20040;-58
2022/10/04 08:22:25;;;;;;;39.90;32.72;;;20.40;82.20;;;;;;5053050;28;20108;-58
2022/10/04 08:25:01;;;;;;;40.20;33.67;;;20.40;81.60;;;;;;5052968;28;20029;-58
2022/10/04 08:27:29;;;;;;;38.45;32.22;;;20.40;81.50;;;;;;5052984;28;20025;-58
2022/10/04 08:30:03;;;;;;;43.70;35.15;;;20.40;81.40;;;;;;5052722;28;20384;-58
2022/10/04 08:32:31;;;;;;;45.63;35.40;;;20.40;81.70;;;;;;5052954;28;20394;-58
2022/10/04 08:35:15;;;;;;;48.58;36.72;;;20.50;81.60;;;;;;5052740;28;20506;-57
2022/10/04 08:38:13;;;;;;;41.08;34.72;;;20.50;81.20;;;;;;5052623;28;20047;-58
2022/10/04 08:40:42;;;;;;;;;;;20.60;80.90;;;;;;5053846;28;20096;-58
2022/10/04 08:43:29;;;;;;;36.88;31.15;;;20.60;81.00;;;;;;5052688;28;19952;-57
2022/10/04 08:45:55;;;;;;;41.17;34.00;;;20.60;81.00;;;;;;5052761;28;20021;-58
2022/10/04 08:48:51;;;;;;;43.08;34.45;;;20.60;81.20;;;;;;5051970;28;20021;-58
2022/10/04 08:51:39;;;;;;;42.88;34.25;;;20.70;81.10;;;;;;5052506;28;20545;-58
2022/10/04 08:54:26;;;;;;;45.40;34.55;;;20.70;81.50;;;;;;5052432;28;20052;-58
2022/10/04 08:57:11;;;;;;;44.10;33.75;;;20.80;81.30;;;;;;5052497;28;20048;-57
2022/10/04 09:00:12;;;;;;;40.20;31.90;;;20.70;80.90;;;;;;5052188;28;20051;-58
2022/10/04 09:02:53;;;;;;;43.30;33.95;;;20.80;80.90;;;;;;5052296;28;20075;-58
2022/10/04 09:05:29;;;;;;;43.22;33.83;;;20.90;81.40;;;;;;5052491;28;20032;-58
2022/10/04 09:08:16;;;;;;;38.28;31.85;;;20.90;80.90;;;;;;5052171;28;20031;-58
2022/10/04 09:10:52;;;;;;;43.28;33.78;;;20.90;80.70;;;;;;5052129;28;20104;-58
2022/10/04 09:13:45;;;;;;;47.53;33.08;;;21.10;80.60;;;;;;5052200;28;20060;-58
2022/10/04 09:16:16;;;;;;;37.90;33.47;;;21.20;80.00;;;;;;5052500;28;20058;-57
2022/10/04 09:19:20;;;;;;;40.75;32.83;;;21.20;79.90;;;;;;5051811;28;20045;-58
2022/10/04 09:21:46;;;;;;;40.20;31.05;;;21.30;79.90;;;;;;5050847;28;20499;-58
2022/10/04 09:24:33;;;;;;;41.92;33.25;;;21.40;79.60;;;;;;5051948;28;20036;-57
2022/10/04 09:27:38;;;;;;;36.20;30.45;;;21.60;78.50;;;;;;5051908;28;20029;-58
2022/10/04 09:30:21;;;;;;;38.95;30.10;;;21.70;77.80;;;;;;5051739;28;20052;-58
2022/10/04 09:33:07;;;;;;;43.60;33.30;;;21.80;77.10;;;;;;5051845;28;20109;-58
2022/10/04 09:35:51;;;;;;;40.05;30.27;;;21.90;78.50;;;;;;5051643;28;20079;-58
2022/10/04 09:38:42;;;;;;;44.28;31.77;;;22.00;76.20;;;;;;5051430;28;20037;-58
2022/10/04 09:41:26;;;;;;;45.47;32.38;;;22.00;76.50;;;;;;5051774;28;20048;-58
2022/10/04 09:44:15;;;;;;;42.17;30.98;;;21.80;76.50;;;;;;5051447;28;20033;-59
2022/10/04 09:46:50;;;;;;;37.38;29.65;;;21.70;77.30;;;;;;5051634;28;20021;-55
2022/10/04 09:49:41;;;;;;;39.40;29.63;;;21.70;77.20;;;;;;5051504;28;20096;-58
2022/10/04 09:52:27;;;;;;;37.72;30.25;;;21.80;76.00;;;;;;5020895;28;20041;-57
2022/10/04 09:54:59;;;;;;;37.00;30.70;;;21.90;76.50;;;;;;5051532;28;20025;-57
2022/10/04 09:57:38;;;;;;;40.08;30.55;;;21.90;76.20;;;;;;5051543;28;20021;-57
2022/10/04 10:00:24;;;;;;;38.03;28.38;;;22.00;75.60;;;;;;5050505;28;20044;-58
2022/10/04 10:03:17;;;;;;;34.80;28.38;;;22.10;75.50;;;;;;5051323;28;20031;-57
2022/10/04 10:06:05;;;;;;;32.80;26.98;;;22.20;75.00;;;;;;5051478;28;20064;-57
2022/10/04 10:09:03;;;;;;;34.83;28.08;;;22.30;75.20;;;;;;5051296;28;20479;-57
2022/10/04 10:15:16;;;;;;;32.15;28.35;;;22.50;74.00;;;;;;5051507;28;20502;-58
2022/10/04 10:17:55;;;;;;;35.22;27.92;;;22.60;74.20;;;;;;5051225;28;20048;-57
2022/10/04 10:20:26;;;;;;;34.13;28.70;;;22.70;74.00;;;;;;5037293;28;20056;-55
2022/10/04 10:23:23;;;;;;;34.67;28.10;;;22.70;73.90;;;;;;5046936;28;20040;-54
2022/10/04 10:25:55;;;;;;;34.70;27.75;;;22.60;73.30;;;;;;5051155;28;20051;-57
2022/10/04 10:28:29;;;;;;;37.17;28.30;;;22.60;74.00;;;;;;5034403;28;20025;-55
2022/10/04 10:31:13;;;;;;;31.85;26.52;;;22.60;73.30;;;;;;5046451;28;20025;-56
2022/10/04 10:33:57;;;;;;;32.83;26.63;;;22.50;74.20;;;;;;5037697;28;20044;-58
2022/10/04 10:37:01;;;;;;;42.70;28.70;;;22.50;73.60;;;;;;5031249;28;20034;-57
2022/10/04 10:39:36;;;;;;;37.00;28.50;;;22.50;73.80;;;;;;5035721;28;20052;-57
2022/10/04 10:42:18;;;;;;;33.03;27.25;;;22.50;73.80;;;;;;5050631;28;20031;-57
2022/10/04 10:45:01;;;;;;;38.05;27.17;;;22.40;74.20;;;;;;5051012;28;20235;-56
2022/10/04 10:47:58;;;;;;;35.20;28.25;;;22.40;74.10;;;;;;5050711;28;20052;-58
2022/10/04 10:50:57;;;;;;;31.65;26.30;;;22.30;74.50;;;;;;5034030;28;20033;-57
2022/10/04 10:53:57;;;;;;;36.90;26.30;;;22.30;74.20;;;;;;5051184;28;20025;-58
2022/10/04 10:56:35;;;;;;;29.92;25.67;;;22.40;75.00;;;;;;5031029;28;20092;-58
2022/10/04 10:59:19;;;;;;;32.20;26.33;;;22.40;74.80;;;;;;5029450;28;20040;-58
2022/10/04 11:01:59;;;;;;;45.17;28.13;;;22.40;74.40;;;;;;5035992;28;20558;-58
2022/10/04 11:04:31;;;;;;;36.30;26.33;;;22.40;74.50;;;;;;5044318;28;20030;-57
2022/10/04 11:07:03;;;;;;;36.25;27.52;;;22.50;74.00;;;;;;5039391;28;20025;-58
2022/10/04 11:09:37;;;;;;;37.58;26.48;;;22.60;74.00;;;;;;5038534;28;20034;-58
2022/10/04 11:12:34;;;;;;;34.33;27.55;;;22.70;73.90;;;;;;5037788;28;20025;-58
2022/10/04 11:15:37;;;;;;;31.08;26.08;;;22.80;72.30;;;;;;5034348;28;20029;-56
2022/10/04 11:18:44;;;;;;;29.75;25.42;;;22.80;71.80;;;;;;5037140;28;20026;-57
2022/10/04 11:21:20;;;;;;;33.47;24.92;;;22.90;71.10;;;;;;5054537;28;20391;-57
2022/10/04 11:24:25;;;;;;;33.35;27.65;;;22.90;71.80;;;;;;5073976;28;20036;-57
2022/10/04 11:27:27;;;;;;;34.28;26.83;;;22.90;70.20;;;;;;5035296;28;20046;-56
2022/10/04 11:30:11;;;;;;;29.55;25.73;;;22.90;71.50;;;;;;5034123;28;20036;-58
2022/10/04 11:32:39;;;;;;;31.35;25.85;;;22.70;72.60;;;;;;5054054;28;20043;-57
2022/10/04 11:35:05;;;;;;;33.78;27.50;;;22.70;72.30;;;;;;5043409;28;20399;-57
2022/10/04 11:37:49;;;;;;;33.88;27.70;;;22.70;72.00;;;;;;5033963;28;20483;-57
2022/10/04 11:40:20;;;;;;;35.70;25.83;;;22.70;72.00;;;;;;5035946;28;20033;-57
2022/10/04 11:43:20;;;;;;;35.15;25.52;;;22.60;72.30;;;;;;5049403;28;20506;-58
2022/10/04 11:46:07;;;;;;;29.85;24.30;;;22.80;72.20;;;;;;5040511;28;20049;-58
2022/10/04 11:48:47;;;;;;;29.95;24.67;;;23.00;70.90;;;;;;5053466;28;20499;-57
2022/10/04 11:51:26;;;;;;;29.95;24.02;;;23.20;70.20;;;;;;5036081;28;20025;-58
2022/10/04 11:53:54;;;;;;;32.70;24.95;;;23.30;69.00;;;;;;5053189;28;20087;-58
2022/10/04 11:56:44;;;;;;;33.85;25.20;;;23.30;68.90;;;;;;5053263;28;20035;-56
2022/10/04 11:59:18;;;;;;;27.98;24.63;;;23.30;68.60;;;;;;5053291;28;20033;-54
2022/10/04 12:01:58;;;;;;;29.65;24.20;;;23.20;69.50;;;;;;5051978;28;20021;-55
2022/10/04 12:04:39;;;;;;;28.17;24.00;;;23.30;68.10;;;;;;5033473;28;20029;-55
2022/10/04 12:07:41;;;;;;;30.80;23.25;;;23.20;67.30;;;;;;5039856;28;20025;-57
2022/10/04 12:10:28;;;;;;;30.55;23.02;;;23.30;66.90;;;;;;5053303;28;20021;-57
2022/10/04 12:13:13;;;;;;;26.23;22.70;;;23.50;68.60;;;;;;5042051;28;20488;-58
2022/10/04 12:15:53;;;;;;;28.20;23.25;;;23.60;68.40;;;;;;5043464;28;20107;-58
2022/10/04 12:18:37;;;;;;;26.95;23.05;;;23.90;67.50;;;;;;5051657;28;20119;-58
2022/10/04 12:21:08;;;;;;;26.45;21.83;;;23.80;66.70;;;;;;5050320;28;20037;-58
2022/10/04 12:23:58;;;;;;;32.03;23.27;;;23.80;66.70;;;;;;5050551;28;20060;-58
2022/10/04 12:26:37;;;;;;;23.75;21.02;;;23.90;66.30;;;;;;5047907;28;20349;-58
2022/10/04 12:29:20;;;;;;;26.17;20.80;;;24.00;67.00;;;;;;5031626;28;20116;-58
2022/10/04 12:31:57;;;;;;;28.10;21.65;;;24.20;66.50;;;;;;5033306;28;20112;-58
2022/10/04 12:34:56;;;;;;;24.63;21.70;;;24.40;66.50;;;;;;5032972;28;20044;-58
2022/10/04 12:37:48;;;;;;;24.95;21.45;;;24.50;65.10;;;;;;5004637;28;20526;-58
2022/10/04 12:40:21;;;;;;;27.15;21.08;;;24.40;63.40;;;;;;5033290;28;20033;-58
2022/10/04 12:43:07;;;;;;;27.88;21.00;;;24.40;65.60;;;;;;5032661;28;20029;-58
2022/10/04 12:45:48;;;;;;;31.35;19.67;;;24.40;65.00;;;;;;5032743;28;20104;-58
2022/10/04 12:48:35;;;;;;;27.88;21.45;;;24.50;64.70;;;;;;5032540;28;20083;-58
2022/10/04 12:51:10;;;;;;;26.92;21.67;;;24.70;64.10;;;;;;5032746;28;20095;-58
2022/10/04 12:54:07;;;;;;;26.58;21.75;;;24.70;64.00;;;;;;5037703;28;20040;-58
2022/10/04 12:57:06;;;;;;;26.92;21.00;;;24.70;62.50;;;;;;5050932;28;20021;-58
2022/10/04 12:59:44;;;;;;;22.63;19.23;;;25.10;64.00;;;;;;5052085;28;20033;-58
2022/10/04 13:02:22;;;;;;;25.73;20.33;;;25.70;63.10;;;;;;5052366;28;20017;-58
2022/10/04 13:05:11;;;;;;;24.95;21.13;;;26.10;62.30;;;;;;5036827;28;20044;-58
2022/10/04 13:07:37;;;;;;;25.15;20.20;;;26.10;59.40;;;;;;5045964;28;20495;-58
2022/10/04 13:10:34;;;;;;;25.90;20.17;;;26.00;61.20;;;;;;5051641;28;20394;-58
2022/10/04 13:13:24;;;;;;;26.95;21.30;;;26.00;59.30;;;;;;5051886;28;20265;-58
2022/10/04 13:16:11;;;;;;;25.65;19.13;;;26.00;59.70;;;;;;5032154;28;20087;-58
2022/10/04 13:18:56;;;;;;;22.90;20.20;;;26.30;60.10;;;;;;5031891;28;20044;-58
2022/10/04 13:21:43;;;;;;;22.90;19.20;;;26.30;60.20;;;;;;5032018;28;20507;-58
2022/10/04 13:24:55;;;;;;;26.92;20.40;;;26.50;59.20;;;;;;5038745;28;20052;-58
2022/10/04 13:27:37;;;;;;;31.00;19.77;;;26.60;58.40;;;;;;5043028;28;20517;-58
2022/10/04 13:30:22;;;;;;;23.85;19.33;;;26.60;59.10;;;;;;5038717;28;20037;-57
2022/10/04 13:33:17;;;;;;;22.40;18.00;;;26.60;57.40;;;;;;5048851;28;20017;-57
2022/10/04 13:35:55;;;;;;;26.48;19.38;;;26.60;57.50;;;;;;5059246;28;20454;-57
2022/10/04 13:38:34;;;;;;;24.17;18.10;;;26.60;57.20;;;;;;5050450;28;20025;-58
2022/10/04 13:41:19;;;;;;;25.10;20.52;;;26.70;58.60;;;;;;5049503;28;20618;-59